createdAt,value
2019-01-30T00:00:50.912Z,11.07
2019-01-30T00:03:19.780Z,10.00
2019-01-30T00:05:48.674Z,12.30
2019-01-30T00:08:17.648Z,10.07
2019-01-30T00:10:47.048Z,11.40
2019-01-30T00:13:15.945Z,10.67
2019-01-30T00:15:45.097Z,11.57
2019-01-30T00:18:15.294Z,11.07
2019-01-30T00:20:44.459Z,12.10
2019-01-30T00:23:13.549Z,11.70
2019-01-30T00:25:42.629Z,12.50
2019-01-30T00:28:11.660Z,13.43
2019-01-30T00:30:40.715Z,13.10
2019-01-30T00:33:09.645Z,12.40
2019-01-30T00:35:38.659Z,13.00
2019-01-30T00:38:07.557Z,13.50
2019-01-30T00:40:36.631Z,13.20
2019-01-30T00:43:06.526Z,13.90
2019-01-30T00:45:35.477Z,10.50
2019-01-30T00:48:04.793Z,13.23
2019-01-30T00:50:34.610Z,13.70
2019-01-30T00:53:03.615Z,12.43
2019-01-30T00:55:32.464Z,11.97
2019-01-30T00:58:01.407Z,12.37
2019-01-30T01:00:31.265Z,14.63
2019-01-30T01:03:00.170Z,14.80
2019-01-30T01:05:29.235Z,10.83
2019-01-30T01:07:58.248Z,13.67
2019-01-30T01:10:27.215Z,14.40
2019-01-30T01:12:56.136Z,12.70
2019-01-30T01:15:25.061Z,13.10
2019-01-30T01:17:56.485Z,11.93
2019-01-30T01:20:25.341Z,13.00
2019-01-30T01:22:54.331Z,12.47
2019-01-30T01:25:24.761Z,11.20
2019-01-30T01:27:53.675Z,12.10
2019-01-30T01:30:25.804Z,11.70
2019-01-30T01:32:55.247Z,12.37
2019-01-30T01:35:24.403Z,10.63
2019-01-30T01:40:29.371Z,12.80
2019-01-30T01:42:58.198Z,12.63
2019-01-30T01:45:27.183Z,10.33
2019-01-30T01:47:56.017Z,9.70
2019-01-30T01:50:25.042Z,11.10
2019-01-30T01:52:53.957Z,11.03
2019-01-30T01:55:23.275Z,10.53
2019-01-30T01:57:52.681Z,10.63
2019-01-30T02:00:23.222Z,12.50
2019-01-30T02:02:52.300Z,10.40
2019-01-30T02:05:23.097Z,10.70
2019-01-30T02:07:57.640Z,10.20
2019-01-30T02:10:27.063Z,10.53
2019-01-30T02:12:55.871Z,10.80
2019-01-30T02:15:25.067Z,10.73
2019-01-30T02:17:54.586Z,10.07
2019-01-30T02:20:26.086Z,10.37
2019-01-30T02:22:55.052Z,10.63
2019-01-30T02:25:23.895Z,10.43
2019-01-30T02:27:53.030Z,11.10
2019-01-30T02:30:24.681Z,10.60
2019-01-30T02:32:53.797Z,10.10
2019-01-30T02:35:23.295Z,11.47
2019-01-30T02:37:52.553Z,11.27
2019-01-30T02:40:22.695Z,10.33
2019-01-30T02:42:51.625Z,9.27
2019-01-30T02:45:23.351Z,10.07
2019-01-30T02:47:52.512Z,9.17
2019-01-30T02:50:22.017Z,10.50
2019-01-30T02:52:51.235Z,10.53
2019-01-30T02:55:20.490Z,8.40
2019-01-30T02:57:49.899Z,9.83
2019-01-30T03:00:20.064Z,10.40
2019-01-30T03:02:49.121Z,9.80
2019-01-30T03:05:18.809Z,10.73
2019-01-30T03:07:47.684Z,10.23
2019-01-30T03:10:19.229Z,12.40
2019-01-30T03:12:48.543Z,10.87
2019-01-30T03:15:19.147Z,11.00
2019-01-30T03:17:48.435Z,9.50
2019-01-30T03:20:20.130Z,13.23
2019-01-30T03:22:49.257Z,10.80
2019-01-30T03:25:20.304Z,11.30
2019-01-30T03:27:49.261Z,13.33
2019-01-30T03:30:21.219Z,9.67
2019-01-30T03:32:50.339Z,14.40
2019-01-30T03:35:19.337Z,11.00
2019-01-30T03:37:48.528Z,10.70
2019-01-30T03:40:19.899Z,10.73
2019-01-30T03:42:49.224Z,11.17
2019-01-30T03:45:20.857Z,11.33
2019-01-30T03:47:50.556Z,13.60
2019-01-30T03:50:19.516Z,10.50
2019-01-30T03:52:48.636Z,12.20
2019-01-30T03:55:19.568Z,11.37
2019-01-30T03:57:48.548Z,11.60
2019-01-30T04:00:20.233Z,11.97
2019-01-30T04:02:49.656Z,10.57
2019-01-30T04:05:18.747Z,10.80
2019-01-30T04:07:47.900Z,12.67
2019-01-30T04:10:19.078Z,12.37
2019-01-30T04:12:48.118Z,10.43
2019-01-30T04:15:17.203Z,11.50
2019-01-30T04:17:46.312Z,10.27
2019-01-30T04:20:18.117Z,12.10
2019-01-30T04:22:47.379Z,10.57
2019-01-30T04:25:16.668Z,8.83
2019-01-30T04:27:45.798Z,12.17
2019-01-30T04:30:17.525Z,13.67
2019-01-30T04:32:46.623Z,14.07
2019-01-30T04:35:15.817Z,13.10
2019-01-30T04:37:44.873Z,10.20
2019-01-30T04:40:16.206Z,11.20
2019-01-30T04:42:45.129Z,11.43
2019-01-30T04:45:17.028Z,11.90
2019-01-30T04:47:45.910Z,11.57
2019-01-30T04:50:14.963Z,11.67
2019-01-30T04:52:44.034Z,10.73
2019-01-30T04:55:13.144Z,10.63
2019-01-30T04:57:42.018Z,11.30
2019-01-30T05:00:14.234Z,10.60
2019-01-30T05:02:43.081Z,10.73
2019-01-30T05:05:12.911Z,11.73
2019-01-30T05:07:42.005Z,10.53
2019-01-30T05:10:13.101Z,9.43
2019-01-30T05:12:41.908Z,10.70
2019-01-30T05:15:13.571Z,12.33
2019-01-30T05:17:42.423Z,12.70
2019-01-30T05:20:13.922Z,12.73
2019-01-30T05:22:43.185Z,10.43
2019-01-30T05:25:12.680Z,11.50
2019-01-30T05:27:41.546Z,13.03
2019-01-30T05:30:13.279Z,12.73
2019-01-30T05:32:42.064Z,11.30
2019-01-30T05:35:11.154Z,10.63
2019-01-30T05:37:40.062Z,9.33
2019-01-30T05:40:12.137Z,11.90
2019-01-30T05:42:41.024Z,11.20
2019-01-30T05:45:12.820Z,8.93
2019-01-30T05:47:41.955Z,11.50
2019-01-30T05:50:11.579Z,12.23
2019-01-30T05:52:40.523Z,10.80
2019-01-30T05:55:12.079Z,10.83
2019-01-30T05:57:41.086Z,12.10
2019-01-30T06:00:12.734Z,10.80
2019-01-30T06:02:41.541Z,10.97
2019-01-30T06:05:11.053Z,11.73
2019-01-30T06:07:41.257Z,13.43
2019-01-30T06:10:10.551Z,10.00
2019-01-30T06:12:39.593Z,9.40
2019-01-30T06:15:11.181Z,10.73
2019-01-30T06:17:40.391Z,13.27
2019-01-30T06:20:12.134Z,11.77
2019-01-30T06:22:41.257Z,11.80
2019-01-30T06:25:11.947Z,10.30
2019-01-30T06:27:40.914Z,12.40
2019-01-30T06:30:15.426Z,11.10
2019-01-30T06:32:44.700Z,10.73
2019-01-30T06:35:15.598Z,12.20
2019-01-30T06:37:48.109Z,10.77
2019-01-30T06:40:19.747Z,11.67
2019-01-30T06:42:49.511Z,12.47
2019-01-30T06:45:18.486Z,12.53
2019-01-30T06:47:49.166Z,13.10
2019-01-30T06:50:18.412Z,11.10
2019-01-30T06:52:47.851Z,12.57
2019-01-30T06:55:16.902Z,11.73
2019-01-30T06:57:45.862Z,12.10
2019-01-30T07:00:17.247Z,11.57
2019-01-30T07:02:46.453Z,14.37
2019-01-30T07:05:15.647Z,11.20
2019-01-30T07:07:44.693Z,9.47
2019-01-30T07:10:16.427Z,10.73
2019-01-30T07:12:45.406Z,10.10
2019-01-30T07:15:14.960Z,9.50
2019-01-30T07:17:44.134Z,10.33
2019-01-30T07:20:15.345Z,9.00
2019-01-30T07:22:44.445Z,10.37
2019-01-30T07:25:16.230Z,10.90
2019-01-30T07:27:45.119Z,9.47
2019-01-30T07:30:35.994Z,10.50
2019-01-30T07:33:06.107Z,11.70
2019-01-30T07:35:35.206Z,8.17
2019-01-30T07:38:04.423Z,10.10
2019-01-30T07:40:33.338Z,9.07
2019-01-30T07:43:02.922Z,10.23
2019-01-30T07:45:32.134Z,10.40
2019-01-30T07:48:01.072Z,10.87
2019-01-30T07:50:30.225Z,9.13
2019-01-30T07:52:59.269Z,9.40
2019-01-30T07:55:28.234Z,7.90
2019-01-30T07:57:57.155Z,8.93
2019-01-30T08:00:29.102Z,10.27
2019-01-30T08:02:58.160Z,8.40
2019-01-30T08:05:27.095Z,8.80
2019-01-30T08:07:56.268Z,5.83
2019-01-30T08:10:25.228Z,9.17
2019-01-30T08:12:54.669Z,9.20
2019-01-30T08:15:25.167Z,9.40
2019-01-30T08:17:54.068Z,10.70
2019-01-30T08:20:23.709Z,9.03
2019-01-30T08:22:53.763Z,12.03
2019-01-30T08:25:23.855Z,9.30
2019-01-30T08:27:53.559Z,12.90
2019-01-30T08:30:25.474Z,8.70
2019-01-30T08:33:04.136Z,8.30
2019-01-30T08:35:27.696Z,10.60
2019-01-30T08:37:56.612Z,8.63
2019-01-30T08:40:25.447Z,9.97
2019-01-30T08:42:54.679Z,9.17
2019-01-30T08:45:26.159Z,10.17
2019-01-30T08:47:56.044Z,10.70
2019-01-30T08:50:26.374Z,9.47
2019-01-30T08:52:55.945Z,6.97
2019-01-30T08:55:25.307Z,9.17
2019-01-30T08:57:54.509Z,8.60
2019-01-30T09:00:26.519Z,10.40
2019-01-30T09:02:55.845Z,9.60
2019-01-30T09:05:25.285Z,8.60
2019-01-30T09:07:54.737Z,7.03
2019-01-30T09:10:25.913Z,7.97
2019-01-30T09:12:55.783Z,8.53
2019-01-30T09:15:26.692Z,9.30
2019-01-30T09:17:55.942Z,9.30
2019-01-30T09:20:27.500Z,9.83
2019-01-30T09:22:58.901Z,9.90
2019-01-30T09:25:30.602Z,8.27
2019-01-30T09:28:01.601Z,8.73
2019-01-30T09:30:33.402Z,7.70
2019-01-30T09:33:03.074Z,8.70
2019-01-30T09:35:32.581Z,8.20
2019-01-30T09:38:01.741Z,9.40
2019-01-30T09:40:30.666Z,8.10
2019-01-30T09:42:59.638Z,8.83
2019-01-30T09:45:33.749Z,8.70
2019-01-30T09:48:03.007Z,7.60
2019-01-30T09:50:34.211Z,8.37
2019-01-30T09:53:02.593Z,9.43
2019-01-30T09:55:32.980Z,9.20
2019-01-30T09:58:01.983Z,8.40
2019-01-30T10:00:33.586Z,10.00
2019-01-30T10:03:02.949Z,8.50
2019-01-30T10:05:31.970Z,10.97
2019-01-30T10:08:03.681Z,10.33
2019-01-30T10:10:34.876Z,11.97
2019-01-30T10:13:07.162Z,10.30
2019-01-30T10:15:40.874Z,11.50
2019-01-30T10:18:13.356Z,13.37
2019-01-30T10:20:46.599Z,9.50
2019-01-30T10:23:15.784Z,9.57
2019-01-30T10:25:44.832Z,10.33
2019-01-30T10:28:16.560Z,10.30
2019-01-30T10:30:46.971Z,11.53
2019-01-30T10:33:15.995Z,11.80
2019-01-30T10:35:45.424Z,12.73
2019-01-30T10:38:14.504Z,12.80
2019-01-30T10:40:44.868Z,10.30
2019-01-30T10:43:14.054Z,12.33
2019-01-30T10:45:47.333Z,11.77
2019-01-30T10:48:17.136Z,9.57
2019-01-30T10:50:46.312Z,9.10
2019-01-30T10:53:15.276Z,10.40
2019-01-30T10:55:44.606Z,11.93
2019-01-30T10:58:15.513Z,10.20
2019-01-30T11:00:47.179Z,10.47
2019-01-30T11:03:16.838Z,12.10
2019-01-30T11:05:47.035Z,10.33
2019-01-30T11:08:16.270Z,11.47
2019-01-30T11:10:45.153Z,10.30
2019-01-30T11:13:14.585Z,11.23
2019-01-30T11:15:43.561Z,10.30
2019-01-30T11:18:13.223Z,10.23
2019-01-30T11:20:42.423Z,14.37
2019-01-30T11:23:11.601Z,10.50
2019-01-30T11:25:46.090Z,10.67
2019-01-30T11:28:15.547Z,10.10
2019-01-30T11:30:44.741Z,11.60
2019-01-30T11:33:13.914Z,10.73
2019-01-30T11:35:42.806Z,11.50
2019-01-30T11:38:11.732Z,9.90
2019-01-30T11:40:41.480Z,12.20
2019-01-30T11:43:10.611Z,10.60
2019-01-30T11:45:41.731Z,10.87
2019-01-30T11:48:10.931Z,10.70
2019-01-30T11:50:42.012Z,12.23
2019-01-30T11:53:11.152Z,12.13
2019-01-30T11:55:40.324Z,13.70
2019-01-30T11:58:09.489Z,11.77
2019-01-30T12:00:40.325Z,15.37
2019-01-30T12:03:10.155Z,14.60
2019-01-30T12:05:39.055Z,14.70
2019-01-30T12:08:08.365Z,11.00
2019-01-30T12:10:52.197Z,11.33
2019-01-30T12:13:42.727Z,11.07
2019-01-30T12:16:12.876Z,12.20
2019-01-30T12:18:45.312Z,13.13
2019-01-30T12:21:14.439Z,10.50
2019-01-30T12:23:43.343Z,12.83
2019-01-30T12:26:13.780Z,9.00
2019-01-30T12:28:42.972Z,11.80
2019-01-30T12:31:12.048Z,11.90
2019-01-30T12:33:41.058Z,11.07
2019-01-30T12:36:12.664Z,12.10
2019-01-30T12:38:44.666Z,10.83
2019-01-30T12:41:22.401Z,10.90
2019-01-30T12:43:52.642Z,12.13
2019-01-30T12:46:26.959Z,11.03
2019-01-30T12:48:56.093Z,11.80
2019-01-30T12:51:25.189Z,13.07
2019-01-30T12:53:54.356Z,12.60
2019-01-30T12:56:23.267Z,12.13
2019-01-30T12:58:52.199Z,11.83
2019-01-30T13:01:21.280Z,11.40
2019-01-30T13:03:50.215Z,13.17
2019-01-30T13:06:19.199Z,10.57
2019-01-30T13:08:50.713Z,11.03
2019-01-30T13:11:20.956Z,10.77
2019-01-30T13:13:50.927Z,11.00
2019-01-30T13:16:19.857Z,10.70
2019-01-30T13:18:50.733Z,10.90
2019-01-30T13:21:19.678Z,11.00
2019-01-30T13:23:48.691Z,10.50
2019-01-30T13:26:17.650Z,9.07
2019-01-30T13:28:47.729Z,10.30
2019-01-30T13:31:21.112Z,10.60
2019-01-30T13:33:50.081Z,10.10
2019-01-30T13:36:21.874Z,10.27
2019-01-30T13:38:51.126Z,9.80
2019-01-30T13:41:22.722Z,9.40
2019-01-30T13:43:52.021Z,10.30
2019-01-30T13:46:21.224Z,10.03
2019-01-30T13:48:50.442Z,10.70
2019-01-30T13:51:19.396Z,10.40
2019-01-30T13:53:48.570Z,10.43
2019-01-30T13:56:17.540Z,11.10
2019-01-30T13:58:46.659Z,10.40
2019-01-30T14:01:17.662Z,11.10
2019-01-30T14:03:47.592Z,10.17
2019-01-30T14:06:17.657Z,10.43
2019-01-30T14:08:49.493Z,12.50
2019-01-30T14:11:18.632Z,11.23
2019-01-30T14:13:47.562Z,11.10
2019-01-30T14:16:16.502Z,11.40
2019-01-30T14:18:45.459Z,10.77
2019-01-30T14:21:14.350Z,9.40
2019-01-30T14:23:43.241Z,9.43
2019-01-30T14:26:12.476Z,10.87
2019-01-30T14:28:41.447Z,11.07
2019-01-30T14:31:12.127Z,11.43
2019-01-30T14:33:42.087Z,10.87
2019-01-30T14:36:14.308Z,9.63
2019-01-30T14:38:44.205Z,10.18
2019-01-30T14:41:13.146Z,9.60
2019-01-30T14:43:42.621Z,10.57
2019-01-30T14:46:11.680Z,12.10
2019-01-30T14:48:40.671Z,12.80
2019-01-30T14:51:10.228Z,11.30
2019-01-30T14:53:40.358Z,14.60
2019-01-30T14:56:10.889Z,11.93
2019-01-30T14:58:39.934Z,14.13
2019-01-30T15:01:09.830Z,11.30
2019-01-30T15:03:38.758Z,10.40
2019-01-30T15:06:07.743Z,11.30
2019-01-30T15:08:36.783Z,11.70
2019-01-30T15:11:06.160Z,12.30
2019-01-30T15:13:35.668Z,11.60
2019-01-30T15:16:05.077Z,11.63
2019-01-30T15:18:34.218Z,12.07
2019-01-30T15:21:03.119Z,10.87
2019-01-30T15:23:32.315Z,12.50
2019-01-30T15:26:02.461Z,11.93
2019-01-30T15:28:31.463Z,11.63
2019-01-30T15:31:01.747Z,14.10
2019-01-30T15:33:30.845Z,12.20
2019-01-30T15:35:59.715Z,12.33
2019-01-30T15:38:28.628Z,10.97
2019-01-30T15:40:59.019Z,11.40
2019-01-30T15:43:27.976Z,11.93
2019-01-30T15:45:56.966Z,12.03
2019-01-30T15:48:25.968Z,12.87
2019-01-30T15:50:55.177Z,12.53
2019-01-30T15:53:24.138Z,13.30
2019-01-30T15:55:53.257Z,13.57
2019-01-30T15:58:22.388Z,13.87
2019-01-30T16:00:54.039Z,15.30
2019-01-30T16:03:22.952Z,17.47
2019-01-30T16:05:51.910Z,17.87
2019-01-30T16:08:20.831Z,18.67
2019-01-30T16:10:49.827Z,14.60
2019-01-30T16:13:18.722Z,15.00
2019-01-30T16:15:50.432Z,14.50
2019-01-30T16:18:19.562Z,14.40
2019-01-30T16:20:48.492Z,14.00
2019-01-30T16:23:17.499Z,13.80
2019-01-30T16:25:46.436Z,13.53
2019-01-30T16:28:15.646Z,15.00
2019-01-30T16:30:44.825Z,14.80
2019-01-30T16:33:13.793Z,13.90
2019-01-30T16:35:55.264Z,13.93
2019-01-30T16:38:15.115Z,14.03
2019-01-30T16:40:44.095Z,13.60
2019-01-30T16:43:13.282Z,14.70
2019-01-30T16:45:42.123Z,14.77
2019-01-30T16:48:11.707Z,14.10
2019-01-30T16:50:40.758Z,15.27
2019-01-30T16:53:10.275Z,16.40
2019-01-30T16:55:39.323Z,16.60
2019-01-30T16:58:09.253Z,17.50
2019-01-30T17:00:38.968Z,16.93
2019-01-30T17:03:11.609Z,17.20
2019-01-30T17:05:41.935Z,17.57
2019-01-30T17:08:13.170Z,18.70
2019-01-30T17:10:52.767Z,18.20
2019-01-30T17:13:22.445Z,18.47
2019-01-30T17:15:51.932Z,19.00
2019-01-30T17:18:20.742Z,20.37
2019-01-30T17:20:52.613Z,18.83
2019-01-30T17:23:23.048Z,18.70
2019-01-30T17:25:52.566Z,20.17
2019-01-30T17:28:28.022Z,18.40
2019-01-30T17:31:00.190Z,20.03
2019-01-30T17:33:29.360Z,20.10
2019-01-30T17:35:58.368Z,20.60
2019-01-30T17:38:27.536Z,18.50
2019-01-30T17:40:56.645Z,19.13
2019-01-30T17:43:25.739Z,18.73
2019-01-30T17:45:55.548Z,17.37
2019-01-30T17:48:24.711Z,19.30
2019-01-30T17:50:53.723Z,18.20
2019-01-30T17:53:22.697Z,19.00
2019-01-30T17:55:51.742Z,20.43
2019-01-30T17:58:21.703Z,17.33
2019-01-30T18:00:52.861Z,19.67
2019-01-30T18:03:21.967Z,19.03
2019-01-30T18:05:51.603Z,19.67
2019-01-30T18:08:21.297Z,20.53
2019-01-30T18:10:50.456Z,20.10
2019-01-30T18:13:19.313Z,20.90
2019-01-30T18:15:48.904Z,23.50
2019-01-30T18:18:18.118Z,22.50
2019-01-30T18:20:47.591Z,22.63
2019-01-30T18:23:17.179Z,21.50
2019-01-30T18:25:47.137Z,21.83
2019-01-30T18:28:16.325Z,22.70
2019-01-30T18:30:46.669Z,23.77
2019-01-30T18:33:17.493Z,23.20
2019-01-30T18:35:46.808Z,21.83
2019-01-30T18:38:16.027Z,24.90
2019-01-30T18:40:45.140Z,22.90
2019-01-30T18:43:15.641Z,21.40
2019-01-30T18:45:45.955Z,23.17
2019-01-30T18:48:16.635Z,23.40
2019-01-30T18:50:46.406Z,22.73
2019-01-30T18:53:15.483Z,24.10
2019-01-30T18:55:45.149Z,24.20
2019-01-30T18:58:14.195Z,25.70
2019-01-30T19:00:43.436Z,22.80
2019-01-30T19:03:14.263Z,25.10
2019-01-30T19:05:43.360Z,27.83
2019-01-30T19:08:12.541Z,27.60
2019-01-30T19:10:51.476Z,26.63
2019-01-30T19:13:20.808Z,26.23
2019-01-30T19:15:49.903Z,27.50
2019-01-30T19:18:19.025Z,28.00
2019-01-30T19:20:48.262Z,29.27
2019-01-30T19:23:17.499Z,28.87
2019-01-30T19:25:46.657Z,29.10
2019-01-30T19:28:17.302Z,27.20
2019-01-30T19:30:47.381Z,27.97
2019-01-30T19:33:16.779Z,29.50
2019-01-30T19:35:45.674Z,27.27
2019-01-30T19:38:14.833Z,28.20
2019-01-30T19:40:48.998Z,30.00
2019-01-30T19:43:16.141Z,31.43
2019-01-30T19:45:46.570Z,29.80
2019-01-30T19:48:17.498Z,28.30
2019-01-30T19:50:49.193Z,30.87
2019-01-30T19:53:18.157Z,29.73
2019-01-30T19:55:48.957Z,30.60
2019-01-30T19:58:18.045Z,31.27
2019-01-30T20:00:47.449Z,32.07
2019-01-30T20:03:19.598Z,31.93
2019-01-30T20:05:48.994Z,31.37
2019-01-30T20:08:18.182Z,32.00
2019-01-30T20:10:47.314Z,31.50
2019-01-30T20:13:16.561Z,32.40
2019-01-30T20:15:45.561Z,30.43
2019-01-30T20:18:15.310Z,31.00
2019-01-30T20:20:45.759Z,31.73
2019-01-30T20:23:18.201Z,32.30
2019-01-30T20:25:50.690Z,31.50
2019-01-30T20:28:21.472Z,32.30
2019-01-30T20:30:55.245Z,33.33
2019-01-30T20:33:24.524Z,34.50
2019-01-30T20:35:54.047Z,33.77
2019-01-30T20:38:22.945Z,36.30
2019-01-30T20:40:52.709Z,35.40
2019-01-30T20:43:21.908Z,34.07
2019-01-30T20:45:51.018Z,33.40
2019-01-30T20:48:20.777Z,33.53
2019-01-30T20:50:49.760Z,34.80
2019-01-30T20:53:20.179Z,36.63
2019-01-30T20:55:49.047Z,36.07
2019-01-30T20:58:18.466Z,39.10
2019-01-30T21:00:47.578Z,36.83
2019-01-30T21:03:16.446Z,36.00
2019-01-30T21:05:45.784Z,35.17
2019-01-30T21:08:14.917Z,35.90
2019-01-30T21:10:45.518Z,36.30
2019-01-30T21:13:14.444Z,34.60
2019-01-30T21:15:48.300Z,36.97
2019-01-30T21:18:18.232Z,37.70
2019-01-30T21:20:47.558Z,36.43
2019-01-30T21:23:17.345Z,38.53
2019-01-30T21:25:49.862Z,37.00
2019-01-30T21:28:17.775Z,38.90
2019-01-30T21:30:46.936Z,35.07
2019-01-30T21:33:16.688Z,35.77
2019-01-30T21:35:46.047Z,33.90
2019-01-30T21:38:14.894Z,36.13
2019-01-30T21:40:43.739Z,33.60
2019-01-30T21:43:12.752Z,37.07
2019-01-30T21:45:43.229Z,35.50
2019-01-30T21:48:12.180Z,36.63
2019-01-30T21:50:41.063Z,35.63
2019-01-30T21:53:10.072Z,34.47
2019-01-30T21:55:39.081Z,36.93
2019-01-30T21:58:08.685Z,35.10
2019-01-30T22:00:37.744Z,38.40
2019-01-30T22:03:06.910Z,38.57
2019-01-30T22:05:36.080Z,37.67
2019-01-30T22:08:05.515Z,35.23
2019-01-30T22:10:34.547Z,36.00
2019-01-30T22:13:03.577Z,36.17
2019-01-30T22:15:32.562Z,35.53
2019-01-30T22:18:01.429Z,35.57
2019-01-30T22:20:31.819Z,33.63
2019-01-30T22:23:00.784Z,39.80
2019-01-30T22:25:29.779Z,40.17
2019-01-30T22:27:58.761Z,37.47
2019-01-30T22:30:30.673Z,35.27
2019-01-30T22:32:59.751Z,35.80
2019-01-30T22:35:28.726Z,37.23
2019-01-30T22:37:57.563Z,34.13
2019-01-30T22:40:26.557Z,35.90
2019-01-30T22:42:55.716Z,37.80
2019-01-30T22:45:24.788Z,40.43
2019-01-30T22:47:53.795Z,35.63
2019-01-30T22:50:23.055Z,37.40
2019-01-30T22:52:52.937Z,34.27
2019-01-30T22:55:23.902Z,36.47
2019-01-30T22:57:52.901Z,36.07
2019-01-30T23:00:24.552Z,34.37
2019-01-30T23:02:53.751Z,35.53
2019-01-30T23:05:25.390Z,35.40
2019-01-30T23:07:56.028Z,37.70
2019-01-30T23:10:27.712Z,37.83
2019-01-30T23:12:57.807Z,33.30
2019-01-30T23:15:29.668Z,34.90
2019-01-30T23:18:00.911Z,38.17
2019-01-30T23:20:30.524Z,35.40
2019-01-30T23:23:00.466Z,33.10
2019-01-30T23:25:32.120Z,31.47
2019-01-30T23:28:03.712Z,31.60
2019-01-30T23:30:35.541Z,33.80
2019-01-30T23:33:07.250Z,30.20
2019-01-30T23:35:38.933Z,32.20
2019-01-30T23:38:11.909Z,32.20
2019-01-30T23:40:43.459Z,31.40
2019-01-30T23:43:13.455Z,29.87
2019-01-30T23:45:44.504Z,29.23
2019-01-30T23:48:16.202Z,29.40
2019-01-30T23:50:47.919Z,29.60
2019-01-30T23:53:19.669Z,28.23
2019-01-30T23:55:51.359Z,28.00
2019-01-30T23:58:23.106Z,28.17
